createdAt,value
2023-03-02T00:02:24.865Z,0.375
2023-03-02T00:07:25.816Z,0.5625
2023-03-02T00:12:26.782Z,0.625
2023-03-02T00:17:27.529Z,0.5
2023-03-02T00:22:28.481Z,0.5625
2023-03-02T00:27:29.449Z,0.5
2023-03-02T00:32:30.564Z,0.1875
2023-03-02T00:37:31.576Z,0.125
2023-03-02T00:42:32.480Z,0
2023-03-02T00:47:33.415Z,0
2023-03-02T00:52:34.352Z,-0.0625
2023-03-02T00:57:35.223Z,0.4375
2023-03-02T01:02:36.394Z,0.375
2023-03-02T01:07:37.267Z,0.5
2023-03-02T01:12:38.053Z,0.5
2023-03-02T01:17:38.995Z,0.25
2023-03-02T01:22:39.888Z,0.125
2023-03-02T01:27:40.891Z,0.5
2023-03-02T01:32:41.851Z,0.125
2023-03-02T01:37:42.888Z,0.1875
2023-03-02T01:42:43.744Z,-0.1875
2023-03-02T01:47:44.744Z,-0.375
2023-03-02T01:52:45.711Z,-0.1875
2023-03-02T01:57:46.919Z,-0.25
2023-03-02T02:02:47.882Z,-0.5625
2023-03-02T02:07:48.778Z,-0.5
2023-03-02T02:12:49.801Z,-0.5625
2023-03-02T02:17:50.942Z,-0.625
2023-03-02T02:22:51.946Z,-0.8125
2023-03-02T02:27:52.943Z,-0.875
2023-03-02T02:32:53.863Z,-0.5625
2023-03-02T02:37:54.875Z,-0.375
2023-03-02T02:42:55.977Z,-0.375
2023-03-02T02:47:57.165Z,-0.4375
2023-03-02T02:52:57.679Z,-0.5
2023-03-02T02:57:58.660Z,-0.3125
2023-03-02T03:02:59.418Z,-0.375
2023-03-02T03:08:00.478Z,-0.4375
2023-03-02T03:13:01.507Z,-0.375
2023-03-02T03:18:02.343Z,-0.25
2023-03-02T03:23:03.732Z,-0.4375
2023-03-02T03:28:04.687Z,-0.625
2023-03-02T03:33:05.620Z,-0.5
2023-03-02T03:38:06.513Z,-0.5
2023-03-02T03:43:07.605Z,-0.4375
2023-03-02T03:48:08.402Z,-0.4375
2023-03-02T03:53:09.249Z,-0.4375
2023-03-02T03:58:10.351Z,-0.4375
2023-03-02T04:03:11.704Z,-0.375
2023-03-02T04:08:12.472Z,-0.4375
2023-03-02T04:13:13.516Z,-0.5
2023-03-02T04:18:14.446Z,-0.4375
2023-03-02T04:23:15.497Z,-0.5
2023-03-02T04:28:17.506Z,-0.6875
2023-03-02T04:33:17.243Z,-0.625
2023-03-02T04:38:18.128Z,-0.5625
2023-03-02T04:43:18.934Z,-0.625
2023-03-02T04:48:19.743Z,-0.5625
2023-03-02T04:53:20.834Z,-0.6875
2023-03-02T04:58:21.870Z,-0.5625
2023-03-02T05:03:22.801Z,-0.5625
2023-03-02T05:08:23.637Z,-0.625
2023-03-02T05:13:24.595Z,-0.75
2023-03-02T05:18:25.575Z,-0.75
2023-03-02T05:23:26.484Z,-0.75
2023-03-02T05:28:27.549Z,-0.8125
2023-03-02T05:33:28.397Z,-0.875
2023-03-02T05:38:29.528Z,-0.8125
2023-03-02T05:43:30.453Z,-0.9375
2023-03-02T05:48:31.568Z,-0.9375
2023-03-02T05:53:32.519Z,-0.9375
2023-03-02T05:58:33.431Z,-0.9375
2023-03-02T06:03:34.457Z,-0.9375
2023-03-02T06:08:35.463Z,-0.9375
2023-03-02T06:13:36.553Z,-0.9375
2023-03-02T06:18:39.266Z,-0.875
2023-03-02T06:23:38.416Z,-0.9375
2023-03-02T06:28:51.313Z,-0.9375
2023-03-02T06:33:40.195Z,-0.875
2023-03-02T06:38:41.358Z,-0.9375
2023-03-02T06:43:42.222Z,-0.9375
2023-03-02T06:48:43.165Z,-1
2023-03-02T06:53:44.025Z,-1.0625
2023-03-02T06:58:45.089Z,-1
2023-03-02T07:03:45.977Z,-1
2023-03-02T07:08:47.124Z,-1
2023-03-02T07:13:48.358Z,-1.125
2023-03-02T07:18:49.305Z,-1.0625
2023-03-02T07:23:50.145Z,-0.8125
2023-03-02T07:28:50.988Z,-1
2023-03-02T07:33:52.050Z,-0.6875
2023-03-02T07:38:52.813Z,-0.875
2023-03-02T07:43:53.634Z,-0.75
2023-03-02T07:48:55.232Z,-0.625
2023-03-02T07:53:55.772Z,-0.25
2023-03-02T07:58:56.893Z,-0.375
2023-03-02T08:03:57.841Z,0.375
2023-03-02T08:08:58.947Z,0.625
2023-03-02T08:14:00.955Z,0.75
2023-03-02T08:19:02.006Z,0.4375
2023-03-02T08:24:03.234Z,1
2023-03-02T08:29:03.781Z,0.875
2023-03-02T08:34:04.880Z,1.3125
2023-03-02T08:39:05.945Z,1.125
2023-03-02T08:44:06.803Z,1.5625
2023-03-02T08:49:08.278Z,1.375
2023-03-02T08:54:08.713Z,1.5625
2023-03-02T08:59:09.709Z,1.0625
2023-03-02T09:04:10.573Z,1.375
2023-03-02T09:09:11.450Z,1.75
2023-03-02T09:14:12.536Z,1.875
2023-03-02T09:19:13.348Z,2.0625
2023-03-02T09:24:14.363Z,2
2023-03-02T09:29:15.171Z,2.125
2023-03-02T09:34:16.037Z,1.8125
2023-03-02T09:39:17.052Z,1.8125
2023-03-02T09:44:17.959Z,2.375
2023-03-02T09:49:19.250Z,1.8125
2023-03-02T09:54:20.819Z,1.9375
2023-03-02T09:59:20.714Z,1.6875
2023-03-02T10:04:21.832Z,1.9375
2023-03-02T10:09:22.775Z,1.75
2023-03-02T10:14:23.775Z,1.8125
2023-03-02T10:19:24.785Z,2
2023-03-02T10:24:27.526Z,2.0625
2023-03-02T10:29:26.686Z,1.5625
2023-03-02T10:34:27.600Z,1.625
2023-03-02T10:39:28.675Z,1.625
2023-03-02T10:44:29.489Z,1.8125
2023-03-02T10:49:30.313Z,1.75
2023-03-02T10:54:30.997Z,1.9375
2023-03-02T10:59:32.169Z,1.8125
2023-03-02T11:04:33.398Z,1.5625
2023-03-02T11:09:34.405Z,1.625
2023-03-02T11:14:35.263Z,1.625
2023-03-02T11:19:36.268Z,1.6875
2023-03-02T11:24:37.165Z,1.125
2023-03-02T11:29:38.252Z,2
2023-03-02T11:34:39.318Z,1.5625
2023-03-02T11:39:46.322Z,1.9375
2023-03-02T11:44:41.126Z,1.9375
2023-03-02T11:49:42.179Z,2.25
2023-03-02T11:54:43.132Z,1.9375
2023-03-02T11:59:44.014Z,2.25
2023-03-02T12:04:44.937Z,2.375
2023-03-02T12:09:45.976Z,2.5
2023-03-02T12:14:46.875Z,2.625
2023-03-02T12:19:48.010Z,2.75
2023-03-02T12:24:48.913Z,2.75
2023-03-02T12:29:49.858Z,2.875
2023-03-02T12:34:50.699Z,3.0625
2023-03-02T12:39:51.904Z,3.25
2023-03-02T12:44:52.881Z,3.3125
2023-03-02T12:49:53.822Z,3.25
2023-03-02T12:54:54.617Z,3.375
2023-03-02T12:59:55.467Z,3.5625
2023-03-02T13:04:56.284Z,4.6875
2023-03-02T13:09:57.512Z,3.875
2023-03-02T13:14:58.264Z,3.75
2023-03-02T13:19:59.262Z,3.625
2023-03-02T13:25:00.209Z,3.8125
2023-03-02T13:30:01.376Z,3.8125
2023-03-02T13:35:02.140Z,3.8125
2023-03-02T13:40:03.079Z,5.625
2023-03-02T13:45:04.200Z,4.125
2023-03-02T13:50:05.111Z,4.0625
2023-03-02T13:55:05.902Z,3.8125
2023-03-02T14:00:06.974Z,3.75
2023-03-02T14:05:07.938Z,3.75
2023-03-02T14:10:08.788Z,3.625
2023-03-02T14:15:09.852Z,3.625
2023-03-02T14:20:10.708Z,3.4375
2023-03-02T14:25:11.592Z,3.5
2023-03-02T14:30:12.665Z,3.375
2023-03-02T14:35:13.668Z,3.4375
2023-03-02T14:40:14.544Z,3.5
2023-03-02T14:45:15.301Z,3
2023-03-02T14:50:16.252Z,3
2023-03-02T14:55:17.082Z,2.9375
2023-03-02T15:00:18.102Z,2.8125
2023-03-02T15:05:18.989Z,2.6875
2023-03-02T15:10:19.868Z,2.625
2023-03-02T15:15:20.822Z,2.5
2023-03-02T15:20:21.566Z,2.3125
2023-03-02T15:25:22.769Z,2.25
2023-03-02T15:30:23.529Z,2.0625
2023-03-02T15:35:24.600Z,1.875
2023-03-02T15:40:25.760Z,1.6875
2023-03-02T15:45:26.738Z,1.625
2023-03-02T15:50:27.930Z,1.4375
2023-03-02T15:55:28.512Z,1.1875
2023-03-02T16:00:29.569Z,1.1875
2023-03-02T16:05:30.641Z,1.1875
2023-03-02T16:10:31.597Z,1
2023-03-02T16:15:32.607Z,1
2023-03-02T16:20:33.362Z,1
2023-03-02T16:25:34.334Z,1
2023-03-02T16:30:35.602Z,0.875
2023-03-02T16:35:36.627Z,0.9375
2023-03-02T16:40:37.677Z,0.875
2023-03-02T16:45:38.612Z,1
2023-03-02T16:50:39.528Z,0.9375
2023-03-02T16:55:40.551Z,0.8125
2023-03-02T17:00:42.103Z,0.6875
2023-03-02T17:05:42.532Z,0.8125
2023-03-02T17:10:43.497Z,0.625
2023-03-02T17:15:44.405Z,0.5625
2023-03-02T17:20:45.170Z,0.75
2023-03-02T17:25:46.290Z,0.8125
2023-03-02T17:30:47.388Z,0.75
2023-03-02T17:35:48.260Z,0.625
2023-03-02T17:40:49.216Z,0.8125
2023-03-02T17:45:50.246Z,0.8125
2023-03-02T17:50:51.608Z,0.8125
2023-03-02T17:55:51.976Z,0.875
2023-03-02T18:00:53.989Z,0.3125
2023-03-02T18:05:53.949Z,0.8125
2023-03-02T18:10:55.016Z,0.875
2023-03-02T18:15:55.852Z,0.75
2023-03-02T18:20:56.687Z,0.875
2023-03-02T18:25:57.640Z,0.625
2023-03-02T18:30:58.697Z,0.5625
2023-03-02T18:35:59.639Z,0.4375
2023-03-02T18:41:00.843Z,0.5
2023-03-02T18:46:01.803Z,0.75
2023-03-02T18:51:03.112Z,0.6875
2023-03-02T18:56:03.558Z,0.6875
2023-03-02T19:01:04.465Z,0.4375
2023-03-02T19:06:05.308Z,0.5625
2023-03-02T19:11:06.273Z,0.9375
2023-03-02T19:16:07.390Z,0.75
2023-03-02T19:21:08.307Z,0.6875
2023-03-02T19:26:09.164Z,0.625
2023-03-02T19:31:10.315Z,0.5625
2023-03-02T19:36:11.327Z,0.5625
2023-03-02T19:41:12.301Z,0.5
2023-03-02T19:46:13.274Z,0.375
2023-03-02T19:51:14.202Z,0.5
2023-03-02T19:56:15.051Z,0.5
2023-03-02T20:01:16.156Z,0.3125
2023-03-02T20:06:17.134Z,0.3125
2023-03-02T20:11:18.184Z,0.1875
2023-03-02T20:16:19.053Z,0.1875
2023-03-02T20:21:19.936Z,0.3125
2023-03-02T20:26:20.886Z,0.25
2023-03-02T20:31:21.966Z,0.0625
2023-03-02T20:36:22.842Z,0.0625
2023-03-02T20:41:23.774Z,-0.0625
2023-03-02T20:46:24.902Z,-0.3125
2023-03-02T20:51:26.393Z,-0.25
2023-03-02T20:56:27.011Z,-0.125
2023-03-02T21:01:28.071Z,-0.1875
2023-03-02T21:06:29.022Z,-0.1875
2023-03-02T21:11:29.999Z,-0.25
2023-03-02T21:16:31.122Z,-0.0625
2023-03-02T21:21:40.975Z,-0.0625
2023-03-02T21:26:33.117Z,0.0625
2023-03-02T21:31:34.231Z,0.0625
2023-03-02T21:36:35.047Z,0.0625
2023-03-02T21:41:35.985Z,-0.1875
2023-03-02T21:46:36.857Z,-0.125
2023-03-02T21:51:37.870Z,-0.0625
2023-03-02T21:56:38.732Z,-0.0625
2023-03-02T22:01:39.787Z,0
2023-03-02T22:06:40.632Z,0.0625
2023-03-02T22:11:41.826Z,-0.0625
2023-03-02T22:16:42.465Z,0
2023-03-02T22:21:43.370Z,0.0625
2023-03-02T22:26:44.214Z,0
2023-03-02T22:31:45.390Z,-0.0625
2023-03-02T22:36:46.081Z,-0.0625
2023-03-02T22:41:47.041Z,-0.125
2023-03-02T22:46:47.950Z,-0.1875
2023-03-02T22:51:48.977Z,-0.0625
2023-03-02T22:56:49.663Z,-0.0625
2023-03-02T23:01:50.570Z,-0.0625
2023-03-02T23:06:51.624Z,-0.0625
2023-03-02T23:11:52.753Z,-0.25
2023-03-02T23:16:53.669Z,-0.0625
2023-03-02T23:21:54.435Z,-0.125
2023-03-02T23:26:55.182Z,-0.125
2023-03-02T23:31:56.191Z,-0.0625
2023-03-02T23:36:57.214Z,-0.125
2023-03-02T23:41:58.060Z,-0.0625
2023-03-02T23:46:58.957Z,0
2023-03-02T23:52:00.785Z,0
2023-03-02T23:57:00.712Z,0
